Time;durP1;ratioP1;P1;durP2;ratioP2;P2;SDS_P1;SDS_P2;PMS_P1;PMS_P2;Temp;Humidity;BMP_temperature;BMP_pressure;BME280_temperature;BME280_humidity;BME280_pressure;Samples;Min_cycle;Max_cycle;Signal;HPM_P1;HPM_P2
2022/03/08 00:00:19;;;;;;;11.12;8.35;;;;;;;0.74;65.50;100455.69;1775420;80;20948;-73
2022/03/08 00:02:46;;;;;;;15.70;10.60;;;;;;;0.71;65.44;100454.48;1774999;80;20912;-73
2022/03/08 00:05:13;;;;;;;13.75;9.28;;;;;;;0.69;65.52;100448.50;1775652;80;20944;-72
2022/03/08 00:07:42;;;;;;;34.33;22.07;;;;;;;0.70;65.47;100444.17;1775426;80;21184;-72
2022/03/08 00:10:09;;;;;;;30.48;19.40;;;;;;;0.69;65.33;100447.20;1775262;80;20931;-73
2022/03/08 00:12:36;;;;;;;54.18;31.87;;;;;;;0.61;65.31;100446.52;1775405;80;21066;-73
2022/03/08 00:15:12;;;;;;;59.45;33.38;;;;;;;0.56;65.37;100448.36;1775360;80;20952;-73
2022/03/08 00:17:41;;;;;;;26.73;17.45;;;;;;;0.52;65.73;100442.84;1775272;80;21012;-72
2022/03/08 00:20:09;;;;;;;13.70;10.03;;;;;;;0.55;65.87;100439.74;1775600;80;22137;-71
2022/03/08 00:22:37;;;;;;;13.90;9.58;;;;;;;0.60;65.86;100439.64;1775340;80;20885;-74
2022/03/08 00:25:05;;;;;;;13.50;8.73;;;;;;;0.65;65.73;100438.28;1774319;80;20912;-72
2022/03/08 00:27:32;;;;;;;14.13;9.05;;;;;;;0.68;65.75;100430.45;1768164;81;20889;-73
2022/03/08 00:30:00;;;;;;;37.30;19.90;;;;;;;0.71;65.74;100435.53;1768256;81;21058;-72
2022/03/08 00:32:27;;;;;;;59.83;33.78;;;;;;;0.74;65.75;100436.78;1768293;81;21138;-71
2022/03/08 00:34:55;;;;;;;65.55;35.20;;;;;;;0.76;65.54;100432.44;1768138;80;20849;-72
2022/03/08 00:37:22;;;;;;;52.08;27.87;;;;;;;0.74;65.26;100431.62;1768146;81;20987;-72
2022/03/08 00:39:49;;;;;;;33.95;20.77;;;;;;;0.68;65.12;100430.45;1768246;80;20892;-73
2022/03/08 00:42:16;;;;;;;33.78;20.35;;;;;;;0.60;65.19;100431.90;1768409;81;21287;-73
2022/03/08 00:44:43;;;;;;;21.00;14.05;;;;;;;0.55;65.27;100426.00;1768411;81;21567;-74
2022/03/08 00:47:11;;;;;;;26.45;15.93;;;;;;;0.49;65.39;100428.29;1768177;81;21007;-71
2022/03/08 00:49:38;;;;;;;32.50;19.23;;;;;;;0.49;65.53;100423.13;1768164;81;20936;-71
2022/03/08 00:52:07;;;;;;;41.00;23.87;;;;;;;0.49;65.51;100426.13;1768334;80;21615;-71
2022/03/08 00:54:34;;;;;;;36.83;21.05;;;;;;;0.53;65.62;100429.05;1768295;80;20929;-71
2022/03/08 00:57:01;;;;;;;22.22;12.88;;;;;;;0.54;65.67;100422.58;1768265;81;21460;-71
2022/03/08 00:59:28;;;;;;;17.12;10.45;;;;;;;0.59;65.55;100418.61;1768498;81;20952;-71
2022/03/08 01:01:56;;;;;;;12.03;8.20;;;;;;;0.58;65.68;100422.92;1768159;80;20897;-72
2022/03/08 01:04:23;;;;;;;21.73;13.95;;;;;;;0.58;65.73;100418.21;1768044;80;21486;-71
2022/03/08 01:06:50;;;;;;;22.35;15.13;;;;;;;0.59;65.64;100417.31;1768267;81;20908;-71
2022/03/08 01:09:17;;;;;;;17.17;13.28;;;;;;;0.54;65.47;100420.00;1768126;81;21508;-71
2022/03/08 01:11:45;;;;;;;18.37;11.38;;;;;;;0.46;65.50;100414.15;1768089;81;20889;-72
2022/03/08 01:14:13;;;;;;;16.57;10.60;;;;;;;0.44;65.73;100416.36;1768164;80;20893;-71
2022/03/08 01:16:40;;;;;;;15.48;10.65;;;;;;;0.43;65.88;100415.97;1768208;80;21499;-72
2022/03/08 01:19:07;;;;;;;16.90;10.93;;;;;;;0.41;65.88;100405.22;1768262;81;21378;-72
2022/03/08 01:21:36;;;;;;;23.98;12.85;;;;;;;0.43;65.98;100412.94;1768407;81;21157;-71
2022/03/08 01:24:05;;;;;;;29.65;15.40;;;;;;;0.48;65.80;100411.55;1768097;81;20888;-71
2022/03/08 01:26:32;;;;;;;20.30;11.43;;;;;;;0.50;65.78;100405.47;1768065;80;20944;-71
2022/03/08 01:28:59;;;;;;;22.80;14.03;;;;;;;0.48;65.82;100409.80;1768211;81;20932;-71
2022/03/08 01:31:26;;;;;;;20.30;10.72;;;;;;;0.48;65.80;100412.39;1768269;81;20928;-72
2022/03/08 01:33:54;;;;;;;19.98;11.38;;;;;;;0.48;65.82;100413.67;1768225;80;21125;-72
2022/03/08 01:36:22;;;;;;;10.72;8.10;;;;;;;0.44;65.75;100409.46;1768167;81;20988;-71
2022/03/08 01:38:49;;;;;;;17.30;11.05;;;;;;;0.41;65.97;100406.52;1768150;81;21000;-71
2022/03/08 01:41:17;;;;;;;11.25;7.42;;;;;;;0.41;66.02;100409.09;1768252;81;20928;-72
2022/03/08 01:43:45;;;;;;;12.98;9.53;;;;;;;0.44;66.07;100415.06;1768136;80;20971;-72
2022/03/08 01:46:16;;;;;;;15.50;10.75;;;;;;;0.45;66.13;100411.62;1768166;80;21907;-71
2022/03/08 01:48:44;;;;;;;13.43;8.23;;;;;;;0.46;66.25;100407.70;1768112;81;20889;-72
2022/03/08 01:51:13;;;;;;;13.22;10.00;;;;;;;0.50;66.24;100411.07;1768093;81;20932;-72
2022/03/08 01:53:40;;;;;;;12.78;8.95;;;;;;;0.52;66.08;100407.58;1768114;81;20995;-71
2022/03/08 01:56:08;;;;;;;14.75;9.30;;;;;;;0.52;66.03;100409.31;1768394;81;20932;-71
2022/03/08 01:58:37;;;;;;;10.32;7.72;;;;;;;0.52;66.08;100410.16;1768141;81;21167;-71
2022/03/08 02:01:05;;;;;;;11.40;8.43;;;;;;;0.54;66.20;100414.84;1768180;81;20917;-71
2022/03/08 02:03:34;;;;;;;11.97;8.33;;;;;;;0.57;66.09;100412.18;1768078;81;21470;-71
2022/03/08 02:06:01;;;;;;;10.53;7.70;;;;;;;0.56;66.12;100407.08;1768166;81;20976;-72
2022/03/08 02:08:30;;;;;;;14.45;9.90;;;;;;;0.54;65.99;100410.13;1768133;81;21044;-72
2022/03/08 02:10:57;;;;;;;18.27;9.35;;;;;;;0.54;66.09;100414.84;1768102;81;21116;-72
2022/03/08 02:13:26;;;;;;;11.25;8.08;;;;;;;0.57;66.02;100412.18;1768124;81;20849;-71
2022/03/08 02:15:54;;;;;;;8.73;6.28;;;;;;;0.58;65.97;100412.61;1768192;80;20936;-72
2022/03/08 02:18:21;;;;;;;10.23;7.40;;;;;;;0.63;65.89;100414.23;1768612;81;20936;-72
2022/03/08 02:20:48;;;;;;;12.80;8.48;;;;;;;0.64;65.85;100409.02;1768487;80;21358;-73
2022/03/08 02:23:15;;;;;;;11.80;7.40;;;;;;;0.64;65.83;100412.05;1768250;81;21139;-70
2022/03/08 02:25:42;;;;;;;11.80;7.87;;;;;;;0.63;65.58;100415.08;1768179;80;20921;-71
2022/03/08 02:28:09;;;;;;;13.65;8.23;;;;;;;0.59;65.46;100413.00;1768294;81;20893;-72
2022/03/08 02:30:36;;;;;;;11.63;9.08;;;;;;;0.50;65.53;100411.91;1768072;81;21458;-72
2022/03/08 02:33:03;;;;;;;10.18;8.03;;;;;;;0.44;65.78;100417.20;1768254;81;21524;-72
2022/03/08 02:35:31;;;;;;;8.45;7.37;;;;;;;0.43;65.93;100421.13;1768202;81;21140;-71
2022/03/08 02:38:01;;;;;;;9.93;7.50;;;;;;;0.39;66.06;100416.02;1768266;80;20924;-71
2022/03/08 02:40:36;;;;;;;8.35;6.90;;;;;;;0.37;66.09;100414.35;1768426;80;20873;-72
2022/03/08 02:43:04;;;;;;;10.98;8.58;;;;;;;0.33;66.22;100418.72;1768336;81;21469;-70
2022/03/08 02:45:31;;;;;;;13.95;8.73;;;;;;;0.35;66.49;100417.41;1768091;80;20964;-71
2022/03/08 02:47:58;;;;;;;11.57;9.58;;;;;;;0.37;66.52;100415.64;1768134;81;21058;-70
2022/03/08 02:50:25;;;;;;;12.55;7.70;;;;;;;0.37;66.50;100421.64;1767968;81;20908;-71
2022/03/08 02:52:54;;;;;;;10.08;7.42;;;;;;;0.35;66.63;100416.11;1768351;81;20901;-71
2022/03/08 02:55:23;;;;;;;11.18;7.78;;;;;;;0.38;66.81;100420.78;1768044;81;20945;-71
2022/03/08 02:57:51;;;;;;;9.28;6.87;;;;;;;0.40;66.73;100420.72;1768192;80;21417;-70
2022/03/08 03:00:19;;;;;;;7.90;6.28;;;;;;;0.43;66.62;100426.28;1768087;81;21717;-73
2022/03/08 03:02:47;;;;;;;6.83;5.97;;;;;;;0.43;66.86;100424.55;1768014;81;20885;-71
2022/03/08 03:05:14;;;;;;;14.07;6.65;;;;;;;0.49;66.91;100424.42;1767980;80;20982;-71
2022/03/08 03:07:41;;;;;;;5.60;5.08;;;;;;;0.53;66.85;100422.60;1768414;81;21386;-71
2022/03/08 03:10:11;;;;;;;7.85;5.78;;;;;;;0.58;66.73;100423.37;1768066;81;21393;-71
2022/03/08 03:12:38;;;;;;;7.60;6.08;;;;;;;0.60;66.63;100423.74;1767707;80;22273;-71
2022/03/08 03:15:08;;;;;;;8.90;6.08;;;;;;;0.64;66.55;100425.80;1768299;81;21426;-71
2022/03/08 03:17:36;;;;;;;6.92;6.17;;;;;;;0.66;66.47;100419.31;1768179;81;20889;-72
2022/03/08 03:20:05;;;;;;;8.55;5.92;;;;;;;0.68;66.39;100423.56;1768173;81;20986;-71
2022/03/08 03:22:32;;;;;;;6.33;5.60;;;;;;;0.70;66.43;100420.95;1768235;81;20941;-71
2022/03/08 03:25:00;;;;;;;8.68;7.28;;;;;;;0.71;66.35;100420.92;1768134;81;21120;-72
2022/03/08 03:27:27;;;;;;;9.10;6.25;;;;;;;0.71;66.33;100420.92;1772954;80;20920;-70
2022/03/08 03:29:54;;;;;;;10.75;6.70;;;;;;;0.72;66.32;100417.90;1775146;80;20896;-70
2022/03/08 03:32:23;;;;;;;11.73;7.90;;;;;;;0.71;66.34;100415.77;1775368;80;20916;-71
2022/03/08 03:34:50;;;;;;;11.97;8.28;;;;;;;0.70;66.40;100416.63;1775168;80;20982;-71
2022/03/08 03:37:18;;;;;;;13.15;8.60;;;;;;;0.70;66.46;100416.63;1775104;80;21148;-71
2022/03/08 03:40:39;;;;;;;14.95;8.78;;;;;;;0.75;66.50;100417.81;1797915;79;22520;-71
2022/03/08 03:43:06;;;;;;;15.48;9.38;;;;;;;0.69;66.47;100426.98;1758290;81;21495;-70
2022/03/08 03:45:33;;;;;;;14.23;8.48;;;;;;;0.70;66.45;100424.83;1758300;80;21525;-71
2022/03/08 03:48:00;;;;;;;13.22;8.80;;;;;;;0.68;66.48;100424.00;1758393;81;20869;-72
2022/03/08 03:50:27;;;;;;;10.35;7.30;;;;;;;0.66;66.48;100421.45;1758524;81;20979;-72
2022/03/08 03:52:54;;;;;;;15.78;7.95;;;;;;;0.63;66.62;100430.56;1758296;80;20864;-73
2022/03/08 03:55:21;;;;;;;12.78;8.13;;;;;;;0.60;66.75;100430.61;1758484;81;20880;-71
2022/03/08 03:57:50;;;;;;;9.23;7.30;;;;;;;0.58;66.87;100427.24;1758518;80;21789;-71
2022/03/08 04:00:18;;;;;;;9.43;6.72;;;;;;;0.54;66.86;100428.19;1758223;81;20951;-70
2022/03/08 04:02:45;;;;;;;11.65;6.67;;;;;;;0.48;67.18;100427.02;1758324;81;20995;-72
2022/03/08 04:05:12;;;;;;;8.05;6.78;;;;;;;0.49;67.28;100430.00;1758462;81;20936;-72
2022/03/08 04:07:39;;;;;;;8.90;6.42;;;;;;;0.48;67.36;100428.31;1758683;81;20987;-72
2022/03/08 04:10:10;;;;;;;10.48;6.97;;;;;;;0.48;67.48;100429.61;1758338;81;21153;-71
2022/03/08 04:12:37;;;;;;;8.00;6.85;;;;;;;0.41;67.47;100427.59;1758436;80;20936;-72
2022/03/08 04:15:05;;;;;;;8.55;6.60;;;;;;;0.35;67.71;100432.42;1758197;80;20944;-72
2022/03/08 04:17:34;;;;;;;8.15;6.53;;;;;;;0.32;68.03;100426.06;1758379;80;20868;-71
2022/03/08 04:20:03;;;;;;;7.25;6.40;;;;;;;0.30;68.17;100424.39;1758163;81;21402;-72
2022/03/08 04:22:31;;;;;;;10.10;6.97;;;;;;;0.29;68.36;100436.87;1758217;81;21183;-71
2022/03/08 04:24:58;;;;;;;10.18;7.15;;;;;;;0.29;68.66;100424.84;1758294;80;21378;-72
2022/03/08 04:27:25;;;;;;;10.58;7.92;;;;;;;0.30;68.65;100427.81;1758291;80;21011;-71
2022/03/08 04:29:52;;;;;;;9.28;7.00;;;;;;;0.26;68.67;100428.76;1758249;80;20939;-71
2022/03/08 04:32:20;;;;;;;10.10;8.00;;;;;;;0.25;68.96;100427.52;1758509;80;21393;-72
2022/03/08 04:34:47;;;;;;;10.03;7.15;;;;;;;0.24;69.07;100437.41;1758401;81;20987;-72
2022/03/08 04:37:16;;;;;;;10.50;7.92;;;;;;;0.25;69.33;100437.39;1758354;80;21039;-72
2022/03/08 04:39:43;;;;;;;8.43;7.10;;;;;;;0.25;69.39;100434.81;1758306;81;20927;-72
2022/03/08 04:42:10;;;;;;;10.00;7.40;;;;;;;0.27;69.65;100432.17;1758403;80;20994;-71
2022/03/08 04:44:38;;;;;;;13.55;8.98;;;;;;;0.35;69.89;100432.42;1758528;81;20948;-71
2022/03/08 04:47:06;;;;;;;12.53;8.85;;;;;;;0.41;69.76;100434.05;1758429;81;21562;-71
2022/03/08 04:49:33;;;;;;;13.53;9.58;;;;;;;0.41;69.66;100430.17;1758479;80;20966;-71
2022/03/08 04:52:00;;;;;;;11.38;10.00;;;;;;;0.44;69.71;100431.84;1758163;81;20841;-72
2022/03/08 04:54:28;;;;;;;13.55;9.18;;;;;;;0.46;69.68;100433.94;1758240;81;21015;-71
2022/03/08 04:56:56;;;;;;;10.63;9.15;;;;;;;0.50;69.75;100435.58;1757915;80;20931;-72
2022/03/08 04:59:23;;;;;;;10.75;8.15;;;;;;;0.52;69.53;100436.40;1758199;81;21631;-71
2022/03/08 05:01:50;;;;;;;11.43;8.73;;;;;;;0.49;69.52;100440.31;1757936;81;20908;-72
2022/03/08 05:04:17;;;;;;;11.65;9.48;;;;;;;0.44;69.60;100434.41;1758008;81;20951;-73
2022/03/08 05:06:47;;;;;;;14.40;10.00;;;;;;;0.36;69.79;100439.30;1757835;81;20979;-72
2022/03/08 05:09:14;;;;;;;11.95;8.50;;;;;;;0.38;70.20;100441.86;1757940;81;20864;-71
2022/03/08 05:11:44;;;;;;;10.10;8.60;;;;;;;0.45;70.06;100438.71;1757910;81;21244;-72
2022/03/08 05:14:11;;;;;;;10.23;9.13;;;;;;;0.45;70.18;100438.71;1757954;80;20872;-71
2022/03/08 05:16:39;;;;;;;11.63;9.00;;;;;;;0.44;70.13;100435.70;1757982;81;21378;-72
2022/03/08 05:19:06;;;;;;;11.43;9.40;;;;;;;0.43;70.21;100435.31;1757793;80;20987;-73
2022/03/08 05:21:33;;;;;;;15.13;10.38;;;;;;;0.43;70.29;100444.34;1758025;81;20881;-70
2022/03/08 05:24:01;;;;;;;11.08;8.33;;;;;;;0.45;70.39;100439.55;1757983;81;21107;-72
2022/03/08 05:26:28;;;;;;;12.03;8.65;;;;;;;0.49;70.26;100439.90;1757923;81;20928;-71
2022/03/08 05:28:55;;;;;;;8.95;8.00;;;;;;;0.48;70.30;100443.80;1757883;81;20900;-71
2022/03/08 05:31:22;;;;;;;12.63;9.58;;;;;;;0.50;70.47;100443.32;1758139;81;20904;-70
2022/03/08 05:33:49;;;;;;;13.38;8.08;;;;;;;0.52;70.60;100450.14;1758009;80;20940;-71
2022/03/08 05:36:17;;;;;;;12.82;9.10;;;;;;;0.58;70.56;100451.30;1757879;81;21540;-73
2022/03/08 05:38:44;;;;;;;10.13;8.10;;;;;;;0.61;70.44;100458.13;1757819;81;21697;-72
2022/03/08 05:41:12;;;;;;;10.05;9.00;;;;;;;0.64;70.30;100449.47;1744698;81;21426;-71
2022/03/08 05:43:40;;;;;;;12.07;9.38;;;;;;;0.64;70.21;100449.02;1744610;81;21406;-72
2022/03/08 05:46:07;;;;;;;11.33;8.95;;;;;;;0.64;70.26;100451.59;1744542;82;20929;-72
2022/03/08 05:48:34;;;;;;;10.60;8.55;;;;;;;0.66;70.40;100458.02;1744646;81;21136;-72
2022/03/08 05:51:01;;;;;;;11.97;10.38;;;;;;;0.68;70.44;100460.13;1744849;82;21431;-73
2022/03/08 05:53:28;;;;;;;12.90;9.23;;;;;;;0.68;70.30;100460.13;1744489;80;21461;-72
2022/03/08 05:55:56;;;;;;;12.75;9.20;;;;;;;0.67;70.19;100463.16;1744604;81;20933;-72
2022/03/08 05:58:23;;;;;;;11.45;9.38;;;;;;;0.67;70.27;100462.29;1744927;81;21350;-73
2022/03/08 06:00:50;;;;;;;12.75;9.38;;;;;;;0.67;70.17;100463.16;1744500;81;21142;-73
2022/03/08 06:03:17;;;;;;;17.30;10.48;;;;;;;0.71;70.31;100457.47;1744491;81;20983;-73
2022/03/08 06:05:44;;;;;;;12.58;9.88;;;;;;;0.73;70.17;100457.00;1744506;81;20924;-73
2022/03/08 06:08:11;;;;;;;11.48;9.88;;;;;;;0.73;70.15;100453.97;1744468;81;21330;-74
2022/03/08 06:10:39;;;;;;;14.47;9.38;;;;;;;0.72;70.12;100459.19;1744540;82;21410;-72
2022/03/08 06:13:06;;;;;;;12.90;9.63;;;;;;;0.72;70.28;100457.45;1744513;81;21101;-70
2022/03/08 06:15:34;;;;;;;13.18;10.18;;;;;;;0.72;70.24;100458.74;1744485;81;21094;-72
2022/03/08 06:18:01;;;;;;;15.25;10.50;;;;;;;0.70;70.34;100455.34;1744476;81;21474;-72
2022/03/08 06:20:28;;;;;;;13.80;10.60;;;;;;;0.76;70.36;100453.08;1744859;82;20921;-73
2022/03/08 06:22:55;;;;;;;10.35;9.20;;;;;;;0.83;70.38;100455.48;1744533;81;20900;-73
2022/03/08 06:25:22;;;;;;;15.48;9.98;;;;;;;0.90;70.18;100463.09;1744677;81;21751;-75
2022/03/08 06:27:49;;;;;;;15.40;9.60;;;;;;;0.92;69.90;100463.91;1744821;81;20976;-72
2022/03/08 06:30:17;;;;;;;10.23;8.70;;;;;;;0.90;70.04;100465.67;1744501;82;20896;-74
2022/03/08 06:32:44;;;;;;;13.20;9.05;;;;;;;0.91;70.08;100465.64;1744912;81;20952;-72
2022/03/08 06:35:11;;;;;;;11.05;9.10;;;;;;;0.94;69.92;100463.43;1744577;81;21395;-73
2022/03/08 06:37:38;;;;;;;11.88;9.05;;;;;;;0.95;69.70;100463.82;1744602;81;21553;-73
2022/03/08 06:40:07;;;;;;;12.95;9.53;;;;;;;0.95;69.64;100468.54;1749551;81;20943;-73
2022/03/08 06:42:36;;;;;;;11.70;9.00;;;;;;;0.97;69.61;100464.64;1757939;81;20936;-74
2022/03/08 06:45:06;;;;;;;11.78;10.23;;;;;;;1.03;69.61;100470.96;1757841;81;21450;-73
2022/03/08 06:47:33;;;;;;;12.82;9.45;;;;;;;1.09;69.38;100469.95;1757912;81;20936;-72
2022/03/08 06:50:00;;;;;;;11.90;9.75;;;;;;;1.09;69.37;100469.53;1758165;81;21064;-72
2022/03/08 06:52:27;;;;;;;12.25;10.10;;;;;;;1.14;69.43;100470.72;1757781;81;20939;-72
2022/03/08 06:54:54;;;;;;;14.73;9.75;;;;;;;1.22;69.22;100468.77;1757781;81;21409;-72
2022/03/08 06:57:21;;;;;;;12.35;9.03;;;;;;;1.26;69.17;100467.83;1757856;80;20943;-73
2022/03/08 06:59:50;;;;;;;12.35;8.63;;;;;;;1.29;69.09;100469.06;1757809;81;20990;-73
2022/03/08 07:02:20;;;;;;;10.35;8.23;;;;;;;1.32;68.70;100466.84;1757949;81;21401;-72
2022/03/08 07:04:47;;;;;;;13.65;9.55;;;;;;;1.33;68.43;100468.52;1758171;81;20995;-73
2022/03/08 07:07:14;;;;;;;10.60;8.98;;;;;;;1.38;68.42;100474.41;1757779;81;20931;-72
2022/03/08 07:09:42;;;;;;;11.75;9.08;;;;;;;1.45;68.26;100474.70;1757802;81;20980;-73
2022/03/08 07:12:10;;;;;;;12.50;9.10;;;;;;;1.50;68.25;100476.72;1757823;81;20979;-72
2022/03/08 07:14:39;;;;;;;11.53;9.10;;;;;;;1.53;67.94;100479.20;1757812;81;20940;-73
2022/03/08 07:17:06;;;;;;;9.38;7.75;;;;;;;1.53;67.59;100475.78;1757767;81;20907;-72
2022/03/08 07:19:33;;;;;;;14.07;8.78;;;;;;;1.52;67.31;100468.94;1758203;81;20860;-72
2022/03/08 07:22:00;;;;;;;11.65;9.15;;;;;;;1.57;67.37;100467.91;1757926;80;21421;-73
2022/03/08 07:24:27;;;;;;;11.70;9.28;;;;;;;1.66;67.20;100468.97;1757892;81;20909;-73
2022/03/08 07:26:55;;;;;;;13.45;9.33;;;;;;;1.77;66.86;100467.84;1757795;80;21129;-73
2022/03/08 07:29:24;;;;;;;8.38;7.53;;;;;;;1.83;66.64;100468.98;1757742;81;21587;-72
2022/03/08 07:31:51;;;;;;;11.20;8.58;;;;;;;1.88;66.00;100465.83;1758101;81;20936;-72
2022/03/08 07:34:18;;;;;;;11.20;8.38;;;;;;;1.92;65.73;100467.90;1757704;81;21004;-74
2022/03/08 07:36:46;;;;;;;10.08;8.75;;;;;;;1.98;65.66;100458.66;1757915;81;20928;-73
2022/03/08 07:39:15;;;;;;;12.95;9.78;;;;;;;2.05;65.30;100462.34;1757774;80;21587;-72
2022/03/08 07:41:43;;;;;;;11.93;9.00;;;;;;;2.14;65.07;100461.25;1757739;81;20936;-73
2022/03/08 07:44:10;;;;;;;13.45;9.05;;;;;;;2.20;64.83;100455.03;1757781;81;20973;-73
2022/03/08 07:46:40;;;;;;;9.58;8.50;;;;;;;2.32;64.79;100462.92;1757863;81;20976;-73
2022/03/08 07:49:07;;;;;;;14.85;9.20;;;;;;;2.44;64.67;100461.26;1757147;81;20921;-72
2022/03/08 07:51:35;;;;;;;9.23;8.33;;;;;;;2.60;64.47;100460.36;1758213;81;21467;-74
2022/03/08 07:54:03;;;;;;;11.05;9.13;;;;;;;2.75;63.84;100456.02;1757749;81;20892;-73
2022/03/08 07:56:33;;;;;;;12.37;8.58;;;;;;;2.89;63.31;100455.16;1757663;81;21502;-72
2022/03/08 07:59:00;;;;;;;12.37;8.78;;;;;;;2.98;63.10;100451.86;1757894;81;20947;-73
2022/03/08 08:01:29;;;;;;;10.38;8.20;;;;;;;3.07;62.32;100454.19;1757752;81;21472;-72
2022/03/08 08:03:57;;;;;;;8.20;7.15;;;;;;;3.06;61.92;100453.32;1757927;81;21107;-74
2022/03/08 08:06:24;;;;;;;6.95;6.25;;;;;;;3.10;61.41;100457.97;1758142;81;21391;-72
2022/03/08 08:08:51;;;;;;;10.43;7.37;;;;;;;3.13;60.51;100456.56;1757810;80;20927;-72
2022/03/08 08:11:20;;;;;;;10.40;7.22;;;;;;;3.20;59.84;100458.52;1757943;81;21422;-72
2022/03/08 08:13:48;;;;;;;9.55;7.33;;;;;;;3.25;59.23;100460.53;1757943;81;21433;-73
2022/03/08 08:16:21;;;;;;;9.88;6.78;;;;;;;3.26;59.23;100456.56;1758007;81;21593;-72
2022/03/08 08:18:49;;;;;;;12.75;10.40;;;;;;;3.34;59.07;100456.80;1757776;81;20908;-72
2022/03/08 08:21:16;;;;;;;11.28;10.13;;;;;;;3.40;59.20;100458.73;1757747;80;20904;-75
2022/03/08 08:23:45;;;;;;;9.10;8.13;;;;;;;3.44;59.18;100458.16;1757804;81;20887;-74
2022/03/08 08:26:12;;;;;;;10.25;9.23;;;;;;;3.51;58.98;100459.22;1757948;81;20916;-72
2022/03/08 08:28:39;;;;;;;10.53;7.78;;;;;;;3.56;59.20;100460.36;1757865;81;21089;-74
2022/03/08 08:31:07;;;;;;;10.55;7.92;;;;;;;3.57;59.05;100451.67;1757914;81;20987;-72
2022/03/08 08:33:37;;;;;;;13.15;9.20;;;;;;;3.53;58.45;100460.02;1757948;81;20892;-74
2022/03/08 08:36:06;;;;;;;11.93;8.40;;;;;;;3.42;58.62;100450.88;1757970;81;20947;-73
2022/03/08 08:38:35;;;;;;;9.85;7.92;;;;;;;3.36;58.89;100453.25;1758122;81;20920;-74
2022/03/08 08:41:04;;;;;;;11.57;8.23;;;;;;;3.33;58.96;100442.96;1757811;80;20904;-73
2022/03/08 08:43:32;;;;;;;9.45;7.70;;;;;;;3.38;59.23;100447.99;1758032;81;21001;-74
2022/03/08 08:46:01;;;;;;;10.32;7.72;;;;;;;3.38;58.84;100448.86;1757937;81;20892;-74
2022/03/08 08:48:30;;;;;;;10.08;8.60;;;;;;;3.38;58.71;100456.64;1757879;81;21008;-74
2022/03/08 08:50:59;;;;;;;9.98;8.60;;;;;;;3.34;58.64;100451.61;1757937;81;20901;-73
2022/03/08 08:53:26;;;;;;;11.73;8.50;;;;;;;3.32;59.23;100452.94;1758022;81;21551;-72
2022/03/08 08:55:55;;;;;;;11.38;7.62;;;;;;;3.34;59.29;100450.31;1757901;80;20900;-74
2022/03/08 08:58:22;;;;;;;10.90;7.60;;;;;;;3.35;58.73;100452.83;1757976;81;20888;-73
2022/03/08 09:00:50;;;;;;;12.20;8.18;;;;;;;3.27;58.47;100456.14;1757892;81;20948;-73
2022/03/08 09:03:17;;;;;;;11.03;8.23;;;;;;;3.22;59.01;100456.72;1757986;80;20975;-74
2022/03/08 09:05:45;;;;;;;8.73;7.83;;;;;;;3.25;58.91;100454.89;1757990;80;21306;-74
2022/03/08 09:08:14;;;;;;;9.23;7.50;;;;;;;3.32;59.04;100451.20;1757803;81;21603;-73
2022/03/08 09:10:43;;;;;;;10.63;8.60;;;;;;;3.36;59.13;100451.08;1757821;81;20888;-73
2022/03/08 09:13:10;;;;;;;8.48;7.05;;;;;;;3.42;59.27;100451.73;1757973;81;20912;-73
2022/03/08 09:15:37;;;;;;;10.03;7.90;;;;;;;3.58;59.18;100452.52;1758060;81;20927;-74
2022/03/08 09:18:08;;;;;;;9.08;7.87;;;;;;;3.75;58.68;100447.60;1757855;81;21527;-73
2022/03/08 09:20:38;;;;;;;8.48;7.47;;;;;;;3.91;58.49;100455.27;1757796;81;20983;-74
2022/03/08 09:23:08;;;;;;;9.05;7.50;;;;;;;4.04;57.86;100454.81;1758006;80;20952;-73
2022/03/08 09:25:36;;;;;;;9.23;6.90;;;;;;;4.09;57.13;100459.38;1757780;80;21385;-74
2022/03/08 09:28:06;;;;;;;12.88;7.83;;;;;;;4.10;56.93;100458.03;1757944;81;21397;-74
2022/03/08 09:30:35;;;;;;;9.00;6.85;;;;;;;4.18;57.21;100459.08;1757974;81;21824;-74
2022/03/08 09:33:02;;;;;;;6.87;6.17;;;;;;;4.23;56.62;100455.02;1757781;81;20884;-75
2022/03/08 09:35:29;;;;;;;8.05;6.70;;;;;;;4.29;56.63;100458.23;1757965;81;20987;-74
2022/03/08 09:37:57;;;;;;;8.55;7.60;;;;;;;4.32;55.89;100457.27;1757836;81;20936;-75
2022/03/08 09:40:26;;;;;;;12.00;8.05;;;;;;;4.30;55.43;100454.72;1756428;80;20979;-75
2022/03/08 09:42:53;;;;;;;10.32;7.33;;;;;;;4.24;55.62;100454.94;1744708;80;21144;-74
2022/03/08 09:45:20;;;;;;;10.03;7.92;;;;;;;4.25;55.72;100452.75;1744504;81;20967;-74
2022/03/08 09:47:49;;;;;;;12.05;8.05;;;;;;;4.26;56.02;100452.30;1744620;81;20863;-73
2022/03/08 09:50:18;;;;;;;9.23;7.85;;;;;;;4.29;56.06;100454.34;1744586;81;20960;-74
2022/03/08 09:52:47;;;;;;;9.25;7.87;;;;;;;4.38;55.91;100450.98;1744569;81;20905;-75
2022/03/08 09:55:16;;;;;;;8.85;7.25;;;;;;;4.36;55.79;100453.66;1744613;82;21161;-74
2022/03/08 09:57:47;;;;;;;8.53;7.53;;;;;;;4.36;55.85;100451.06;1744568;81;21319;-72
2022/03/08 10:00:15;;;;;;;8.18;7.25;;;;;;;4.39;55.60;100454.84;1734203;81;20996;-73
2022/03/08 10:02:52;;;;;;;9.58;6.60;;;;;;;4.36;55.29;100452.36;1744574;81;20904;-74
2022/03/08 10:05:28;;;;;;;12.55;8.05;;;;;;;4.27;54.87;100449.66;1744705;81;20925;-74
2022/03/08 10:08:19;;;;;;;10.18;7.08;;;;;;;4.24;54.81;100452.34;1744562;81;21840;-75
2022/03/08 10:11:05;;;;;;;9.05;7.70;;;;;;;4.25;54.55;100449.32;1742471;80;20976;-76
2022/03/08 10:13:39;;;;;;;12.82;7.37;;;;;;;4.19;54.71;100452.97;1744613;81;21333;-74
2022/03/08 10:16:12;;;;;;;9.40;7.25;;;;;;;4.20;55.13;100455.11;1744600;81;21027;-73
2022/03/08 10:18:46;;;;;;;9.08;6.85;;;;;;;4.25;54.89;100452.75;1744510;81;21474;-72
2022/03/08 10:21:52;;;;;;;9.75;7.03;;;;;;;4.30;54.89;100453.42;1744525;80;21310;-74
2022/03/08 10:24:23;;;;;;;11.43;6.97;;;;;;;4.26;54.54;100449.70;1745040;81;20901;-74
2022/03/08 10:27:02;;;;;;;7.97;6.20;;;;;;;4.18;54.06;100442.20;1744614;81;20917;-74
2022/03/08 10:29:34;;;;;;;8.88;6.53;;;;;;;4.05;53.72;100455.23;1744556;82;20909;-74
2022/03/08 10:32:08;;;;;;;7.72;6.83;;;;;;;4.03;54.75;100453.14;1744684;81;20925;-73
2022/03/08 10:34:39;;;;;;;9.20;7.30;;;;;;;4.04;55.09;100449.16;1744738;80;21076;-73
2022/03/08 10:37:15;;;;;;;9.03;6.20;;;;;;;4.06;54.68;100449.96;1744557;81;21449;-74
2022/03/08 10:39:57;;;;;;;7.90;5.72;;;;;;;4.06;54.07;100451.72;1744352;80;20893;-75
2022/03/08 10:42:27;;;;;;;8.28;6.40;;;;;;;4.08;53.78;100448.16;1744358;80;21441;-74
2022/03/08 10:45:15;;;;;;;8.80;6.55;;;;;;;4.10;53.45;100455.90;1744516;81;21319;-74
2022/03/08 10:47:52;;;;;;;8.08;6.22;;;;;;;4.16;53.62;100459.58;1744437;80;21086;-74
2022/03/08 10:50:23;;;;;;;7.35;6.22;;;;;;;4.23;53.58;100454.55;1744437;82;20857;-74
2022/03/08 10:52:53;;;;;;;10.50;5.83;;;;;;;4.19;52.96;100459.91;1744534;81;20893;-73
2022/03/08 10:55:25;;;;;;;7.12;5.87;;;;;;;4.08;53.35;100461.14;1744550;82;21004;-73
2022/03/08 10:57:56;;;;;;;8.20;5.62;;;;;;;4.07;53.28;100455.56;1744528;81;20865;-74
2022/03/08 11:00:31;;;;;;;6.15;5.40;;;;;;;4.09;53.24;100465.44;1744248;81;21558;-74
2022/03/08 11:03:06;;;;;;;8.78;5.60;;;;;;;4.09;53.70;100452.89;1744397;81;20921;-74
2022/03/08 11:05:49;;;;;;;6.30;4.80;;;;;;;4.03;53.47;100463.52;1744232;81;20932;-74
2022/03/08 11:08:18;;;;;;;6.72;4.65;;;;;;;3.93;53.97;100461.25;1744456;82;20944;-74
2022/03/08 11:10:51;;;;;;;6.12;4.60;;;;;;;3.93;53.98;100459.08;1744593;81;20895;-74
2022/03/08 11:13:20;;;;;;;7.83;5.37;;;;;;;4.03;53.97;100460.46;1744582;81;20972;-73
2022/03/08 11:15:49;;;;;;;7.40;4.60;;;;;;;4.04;53.58;100456.95;1744481;81;20932;-73
2022/03/08 11:18:17;;;;;;;6.50;4.30;;;;;;;4.07;53.52;100462.48;1744490;82;20952;-75
2022/03/08 11:20:46;;;;;;;5.37;4.37;;;;;;;4.17;53.33;100457.37;1744883;81;20937;-73
2022/03/08 11:23:14;;;;;;;5.05;3.10;;;;;;;4.23;52.92;100457.61;1744542;81;20897;-73
2022/03/08 11:25:44;;;;;;;4.92;4.22;;;;;;;4.21;52.12;100458.11;1744617;81;21168;-73
2022/03/08 11:28:13;;;;;;;5.05;3.60;;;;;;;4.09;51.59;100454.19;1744565;80;20865;-74
2022/03/08 11:30:51;;;;;;;4.55;3.67;;;;;;;4.00;51.67;100450.17;1744533;81;21070;-74
2022/03/08 11:33:42;;;;;;;5.45;3.65;;;;;;;3.93;52.07;100449.58;1744441;81;20905;-74